Home > Products > Valid Products > TAF

000
FTUS43 KDMX 301135
TAFDSM
TAF
KDSM 301135Z 3012/3112 25006KT P6SM SKC
     FM301500 29011KT P6SM FEW090
     FM310000 26005KT P6SM SCT090
     FM310100 VRB05KT P6SM BKN100=



000
FTUS43 KDMX 301135
TAFALO
TAF
KALO 301135Z 3012/3112 26005KT P6SM SKC
     FM301600 29012G19KT P6SM SKC
     FM310000 27005KT P6SM FEW100
     FM310100 VRB04KT P6SM SCT100=



000
FTUS43 KDMX 301135
TAFMCW
TAF
KMCW 301135Z 3012/3112 26007KT P6SM SKC
     FM301700 30014G22KT P6SM SKC
     FM310000 29007KT P6SM SKC
     FM310100 VRB03KT P6SM SKC=



000
FTUS43 KDMX 301135
TAFFOD
TAF
KFOD 301135Z 3012/3112 21004KT P6SM SKC
     FM301600 28009KT P6SM FEW090
     FM310000 VRB02KT P6SM SKC=



000
FTUS43 KDMX 301135
TAFOTM
TAF
KOTM 301135Z 3012/3112 27006KT P6SM FEW150
     FM301600 29011KT P6SM FEW100
     FM310100 25004KT P6SM SCT100
     FM310700 24006KT P6SM BKN100=



000
FTUS43 KDMX 301135
TAFMCW
TAF
KMCW 301135Z 3012/3112 26007KT P6SM SKC
     FM301700 30014G22KT P6SM SKC
     FM310000 29007KT P6SM SKC
     FM310100 VRB03KT P6SM SKC=



000
FTUS43 KDMX 301135
TAFDSM
TAF
KDSM 301135Z 3012/3112 25006KT P6SM SKC
     FM301500 29011KT P6SM FEW090
     FM310000 26005KT P6SM SCT090
     FM310100 VRB05KT P6SM BKN100=



000
FTUS43 KDMX 301135
TAFFOD
TAF
KFOD 301135Z 3012/3112 21004KT P6SM SKC
     FM301600 28009KT P6SM FEW090
     FM310000 VRB02KT P6SM SKC=



000
FTUS43 KDMX 301135
TAFALO
TAF
KALO 301135Z 3012/3112 26005KT P6SM SKC
     FM301600 29012G19KT P6SM SKC
     FM310000 27005KT P6SM FEW100
     FM310100 VRB04KT P6SM SCT100=



000
FTUS43 KDMX 301135
TAFOTM
TAF
KOTM 301135Z 3012/3112 27006KT P6SM FEW150
     FM301600 29011KT P6SM FEW100
     FM310100 25004KT P6SM SCT100
     FM310700 24006KT P6SM BKN100=



000
FTUS43 KDMX 301135
TAFDSM
TAF
KDSM 301135Z 3012/3112 25006KT P6SM SKC
     FM301500 29011KT P6SM FEW090
     FM310000 26005KT P6SM SCT090
     FM310100 VRB05KT P6SM BKN100=



000
FTUS43 KDMX 301135
TAFOTM
TAF
KOTM 301135Z 3012/3112 27006KT P6SM FEW150
     FM301600 29011KT P6SM FEW100
     FM310100 25004KT P6SM SCT100
     FM310700 24006KT P6SM BKN100=



000
FTUS43 KDMX 301135
TAFMCW
TAF
KMCW 301135Z 3012/3112 26007KT P6SM SKC
     FM301700 30014G22KT P6SM SKC
     FM310000 29007KT P6SM SKC
     FM310100 VRB03KT P6SM SKC=



000
FTUS43 KDMX 301135
TAFDSM
TAF
KDSM 301135Z 3012/3112 25006KT P6SM SKC
     FM301500 29011KT P6SM FEW090
     FM310000 26005KT P6SM SCT090
     FM310100 VRB05KT P6SM BKN100=



000
FTUS43 KDMX 301135
TAFALO
TAF
KALO 301135Z 3012/3112 26005KT P6SM SKC
     FM301600 29012G19KT P6SM SKC
     FM310000 27005KT P6SM FEW100
     FM310100 VRB04KT P6SM SCT100=



000
FTUS43 KDMX 301135
TAFOTM
TAF
KOTM 301135Z 3012/3112 27006KT P6SM FEW150
     FM301600 29011KT P6SM FEW100
     FM310100 25004KT P6SM SCT100
     FM310700 24006KT P6SM BKN100=



000
FTUS43 KDMX 301135
TAFFOD
TAF
KFOD 301135Z 3012/3112 21004KT P6SM SKC
     FM301600 28009KT P6SM FEW090
     FM310000 VRB02KT P6SM SKC=



000
FTUS43 KDMX 301135
TAFALO
TAF
KALO 301135Z 3012/3112 26005KT P6SM SKC
     FM301600 29012G19KT P6SM SKC
     FM310000 27005KT P6SM FEW100
     FM310100 VRB04KT P6SM SCT100=



000
FTUS43 KDMX 301135
TAFMCW
TAF
KMCW 301135Z 3012/3112 26007KT P6SM SKC
     FM301700 30014G22KT P6SM SKC
     FM310000 29007KT P6SM SKC
     FM310100 VRB03KT P6SM SKC=



000
FTUS43 KDMX 301135
TAFFOD
TAF
KFOD 301135Z 3012/3112 21004KT P6SM SKC
     FM301600 28009KT P6SM FEW090
     FM310000 VRB02KT P6SM SKC=



000
FTUS43 KDMX 300908 AAA
TAFOTM
TAF AMD
KOTM 300908Z 3009/3106 26005KT P6SM FEW150
     FM301600 29011KT P6SM FEW100
     FM310000 25004KT P6SM SCT100=



000
FTUS43 KDMX 300908 AAA
TAFOTM
TAF AMD
KOTM 300908Z 3009/3106 26005KT P6SM FEW150
     FM301600 29011KT P6SM FEW100
     FM310000 25004KT P6SM SCT100=



000
FTUS43 KDMX 300520
TAFOTM
TAF
KOTM 300520Z 3006/3106 26005KT P6SM FEW150
      TEMPO 3009/3013 5SM BR
     FM301600 29011KT P6SM FEW100
     FM310000 25004KT P6SM SCT100=



000
FTUS43 KDMX 300520
TAFMCW
TAF
KMCW 300520Z 3006/3106 26007KT P6SM SKC
     FM301700 30012G19KT P6SM SKC
     FM310000 27005KT P6SM SKC=



000
FTUS43 KDMX 300520
TAFMCW
TAF
KMCW 300520Z 3006/3106 26007KT P6SM SKC
     FM301700 30012G19KT P6SM SKC
     FM310000 27005KT P6SM SKC=



000
FTUS43 KDMX 300520
TAFALO
TAF
KALO 300520Z 3006/3106 26005KT P6SM SKC
     FM301600 29012G19KT P6SM SKC
     FM310000 27005KT P6SM SKC=



000
FTUS43 KDMX 300520
TAFDSM
TAF
KDSM 300520Z 3006/3106 25006KT P6SM SKC
     FM301500 29011KT P6SM FEW100
     FM310000 26005KT P6SM SCT100=



000
FTUS43 KDMX 300520
TAFALO
TAF
KALO 300520Z 3006/3106 26005KT P6SM SKC
     FM301600 29012G19KT P6SM SKC
     FM310000 27005KT P6SM SKC=



000
FTUS43 KDMX 300520
TAFDSM
TAF
KDSM 300520Z 3006/3106 25006KT P6SM SKC
     FM301500 29011KT P6SM FEW100
     FM310000 26005KT P6SM SCT100=



000
FTUS43 KDMX 300520
TAFOTM
TAF
KOTM 300520Z 3006/3106 26005KT P6SM FEW150
      TEMPO 3009/3013 5SM BR
     FM301600 29011KT P6SM FEW100
     FM310000 25004KT P6SM SCT100=



000
FTUS43 KDMX 300520
TAFMCW
TAF
KMCW 300520Z 3006/3106 26007KT P6SM SKC
     FM301700 30012G19KT P6SM SKC
     FM310000 27005KT P6SM SKC=



000
FTUS43 KDMX 300520
TAFALO
TAF
KALO 300520Z 3006/3106 26005KT P6SM SKC
     FM301600 29012G19KT P6SM SKC
     FM310000 27005KT P6SM SKC=



000
FTUS43 KDMX 300520
TAFFOD
TAF
KFOD 300520Z 3006/3106 24004KT P6SM SKC
     FM301600 28009KT P6SM FEW100
     FM310000 VRB02KT P6SM SKC=



000
FTUS43 KDMX 300520
TAFOTM
TAF
KOTM 300520Z 3006/3106 26005KT P6SM FEW150
      TEMPO 3009/3013 5SM BR
     FM301600 29011KT P6SM FEW100
     FM310000 25004KT P6SM SCT100=



000
FTUS43 KDMX 300520
TAFFOD
TAF
KFOD 300520Z 3006/3106 24004KT P6SM SKC
     FM301600 28009KT P6SM FEW100
     FM310000 VRB02KT P6SM SKC=



000
FTUS43 KDMX 300520
TAFDSM
TAF
KDSM 300520Z 3006/3106 25006KT P6SM SKC
     FM301500 29011KT P6SM FEW100
     FM310000 26005KT P6SM SCT100=



000
FTUS43 KDMX 300520
TAFFOD
TAF
KFOD 300520Z 3006/3106 24004KT P6SM SKC
     FM301600 28009KT P6SM FEW100
     FM310000 VRB02KT P6SM SKC=



000
FTUS43 KDMX 300520
TAFFOD
TAF
KFOD 300520Z 3006/3106 24004KT P6SM SKC
     FM301600 28009KT P6SM FEW100
     FM310000 VRB02KT P6SM SKC=



000
FTUS43 KDMX 300520
TAFMCW
TAF
KMCW 300520Z 3006/3106 26007KT P6SM SKC
     FM301700 30012G19KT P6SM SKC
     FM310000 27005KT P6SM SKC=



000
FTUS43 KDMX 300520
TAFDSM
TAF
KDSM 300520Z 3006/3106 25006KT P6SM SKC
     FM301500 29011KT P6SM FEW100
     FM310000 26005KT P6SM SCT100=



000
FTUS43 KDMX 300520
TAFOTM
TAF
KOTM 300520Z 3006/3106 26005KT P6SM FEW150
      TEMPO 3009/3013 5SM BR
     FM301600 29011KT P6SM FEW100
     FM310000 25004KT P6SM SCT100=



000
FTUS43 KDMX 300520
TAFALO
TAF
KALO 300520Z 3006/3106 26005KT P6SM SKC
     FM301600 29012G19KT P6SM SKC
     FM310000 27005KT P6SM SKC=



000
FTUS43 KDMX 292339
TAFOTM
TAF
KOTM 292339Z 3000/3024 29008KT P6SM SKC
     FM300100 26006KT P6SM SCT150
     FM301600 29011KT P6SM SCT100=



000
FTUS43 KDMX 292339
TAFALO
TAF
KALO 292339Z 3000/3024 26006KT P6SM SKC
     FM301600 29012G19KT P6SM SKC=



000
FTUS43 KDMX 292339
TAFFOD
TAF
KFOD 292339Z 3000/3024 25005KT P6SM SKC=



000
FTUS43 KDMX 292339
TAFDSM
TAF
KDSM 292339Z 3000/3024 31009KT P6SM SKC
     FM300100 25006KT P6SM SCT150
     FM301500 28011KT P6SM SCT100=



000
FTUS43 KDMX 292339
TAFMCW
TAF
KMCW 292339Z 3000/3024 28013KT P6SM SKC
     FM300100 26007KT P6SM SKC
     FM301700 30012G19KT P6SM SKC=



000
FTUS43 KDMX 292339
TAFMCW
TAF
KMCW 292339Z 3000/3024 28013KT P6SM SKC
     FM300100 26007KT P6SM SKC
     FM301700 30012G19KT P6SM SKC=



000
FTUS43 KDMX 292339
TAFDSM
TAF
KDSM 292339Z 3000/3024 31009KT P6SM SKC
     FM300100 25006KT P6SM SCT150
     FM301500 28011KT P6SM SCT100=



000
FTUS43 KDMX 292339
TAFALO
TAF
KALO 292339Z 3000/3024 26006KT P6SM SKC
     FM301600 29012G19KT P6SM SKC=



000
FTUS43 KDMX 292339
TAFFOD
TAF
KFOD 292339Z 3000/3024 25005KT P6SM SKC=



000
FTUS43 KDMX 292339
TAFOTM
TAF
KOTM 292339Z 3000/3024 29008KT P6SM SKC
     FM300100 26006KT P6SM SCT150
     FM301600 29011KT P6SM SCT100=



000
FTUS43 KDMX 292251 AAA
TAFDSM
TAF AMD
KDSM 292251Z 2923/3018 29008KT P6SM SKC=



000
FTUS43 KDMX 292251 AAA
TAFDSM
TAF AMD
KDSM 292251Z 2923/3018 29008KT P6SM SKC=



000
FTUS43 KDMX 292251 AAA
TAFDSM
TAF AMD
KDSM 292251Z 2923/3018 29008KT P6SM SKC=



000
FTUS43 KDMX 292251 AAA
TAFDSM
TAF AMD
KDSM 292251Z 2923/3018 29008KT P6SM SKC=



000
FTUS43 KDMX 291738
TAFMCW
TAF
KMCW 291738Z 2918/3018 28017G24KT P6SM SKC
     FM300000 28008KT P6SM SKC
     FM301700 29012G19KT P6SM SKC=



000
FTUS43 KDMX 291738
TAFDSM
TAF
KDSM 291738Z 2918/3018 31012G18KT P6SM SCT150
     FM300000 29008KT P6SM SKC=



000
FTUS43 KDMX 291738
TAFALO
TAF
KALO 291738Z 2918/3018 28012G19KT P6SM SKC
     FM300000 27007KT P6SM SKC
     FM301700 28012G18KT P6SM SKC=



000
FTUS43 KDMX 291738
TAFALO
TAF
KALO 291738Z 2918/3018 28012G19KT P6SM SKC
     FM300000 27007KT P6SM SKC
     FM301700 28012G18KT P6SM SKC=



000
FTUS43 KDMX 291738
TAFFOD
TAF
KFOD 291738Z 2918/3018 27010G18KT P6SM SKC
     FM300000 27006KT P6SM SKC=



000
FTUS43 KDMX 291738
TAFDSM
TAF
KDSM 291738Z 2918/3018 31012G18KT P6SM SCT150
     FM300000 29008KT P6SM SKC=



000
FTUS43 KDMX 291738
TAFOTM
TAF
KOTM 291738Z 2918/3018 33009KT P6SM SCT150
     FM300000 28007KT P6SM SKC=



000
FTUS43 KDMX 291738
TAFMCW
TAF
KMCW 291738Z 2918/3018 28017G24KT P6SM SKC
     FM300000 28008KT P6SM SKC
     FM301700 29012G19KT P6SM SKC=



000
FTUS43 KDMX 291738
TAFOTM
TAF
KOTM 291738Z 2918/3018 33009KT P6SM SCT150
     FM300000 28007KT P6SM SKC=



000
FTUS43 KDMX 291738
TAFFOD
TAF
KFOD 291738Z 2918/3018 27010G18KT P6SM SKC
     FM300000 27006KT P6SM SKC=



000
FTUS43 KDMX 291532 AAA
TAFDSM
TAF AMD
KDSM 291532Z 2916/3012 31010KT P6SM FEW100 SCT150
     FM300000 27006KT P6SM SKC=



000
FTUS43 KDMX 291532 AAA
TAFDSM
TAF AMD
KDSM 291532Z 2916/3012 31010KT P6SM FEW100 SCT150
     FM300000 27006KT P6SM SKC=



000
FTUS43 KDMX 291531 AAA
TAFFOD
TAF AMD
KFOD 291531Z 2916/3012 28010KT P6SM SKC
     FM291615 28011G18KT P6SM SKC
     FM292300 27005KT P6SM SKC=



000
FTUS43 KDMX 291126
TAFDSM
TAF
KDSM 291126Z 2912/3012 30006KT P6SM FEW060 SCT150
     FM291500 30012G18KT P6SM SKC
     FM300000 25006KT P6SM SKC=



000
FTUS43 KDMX 291126
TAFDSM
TAF
KDSM 291126Z 2912/3012 30006KT P6SM FEW060 SCT150
     FM291500 30012G18KT P6SM SKC
     FM300000 25006KT P6SM SKC=



000
FTUS43 KDMX 291126
TAFALO
TAF
KALO 291126Z 2912/3012 30007KT P6SM FEW100
     FM291500 28015G22KT P6SM SKC
     FM300000 26006KT P6SM SKC=



000
FTUS43 KDMX 291126
TAFMCW
TAF
KMCW 291126Z 2912/3012 27010KT P6SM SKC
     FM291500 28016G24KT P6SM SKC
     FM300000 26007KT P6SM SKC=



000
FTUS43 KDMX 291126
TAFFOD
TAF
KFOD 291126Z 2912/3012 27006KT P6SM SKC
     FM291500 28012G19KT P6SM SKC
     FM300000 25005KT P6SM SKC=



000
FTUS43 KDMX 291126
TAFOTM
TAF
KOTM 291126Z 2912/3012 29007KT P6SM FEW045 SCT060 BKN120
     FM291500 30011KT P6SM SKC
     FM300000 27005KT P6SM SKC=



000
FTUS43 KDMX 291126
TAFFOD
TAF
KFOD 291126Z 2912/3012 27006KT P6SM SKC
     FM291500 28012G19KT P6SM SKC
     FM300000 25005KT P6SM SKC=



000
FTUS43 KDMX 291126
TAFALO
TAF
KALO 291126Z 2912/3012 30007KT P6SM FEW100
     FM291500 28015G22KT P6SM SKC
     FM300000 26006KT P6SM SKC=



000
FTUS43 KDMX 291126
TAFOTM
TAF
KOTM 291126Z 2912/3012 29007KT P6SM FEW045 SCT060 BKN120
     FM291500 30011KT P6SM SKC
     FM300000 27005KT P6SM SKC=



000
FTUS43 KDMX 291126
TAFDSM
TAF
KDSM 291126Z 2912/3012 30006KT P6SM FEW060 SCT150
     FM291500 30012G18KT P6SM SKC
     FM300000 25006KT P6SM SKC=



000
FTUS43 KDMX 291126
TAFMCW
TAF
KMCW 291126Z 2912/3012 27010KT P6SM SKC
     FM291500 28016G24KT P6SM SKC
     FM300000 26007KT P6SM SKC=



000
FTUS43 KDMX 290906 AAA
TAFOTM
TAF AMD
KOTM 290906Z 2909/3006 28007KT 6SM -SHRA BR SCT006 BKN025 OVC100
      TEMPO 2909/2910 4SM -SHRA BR BKN005
     FM291000 33008KT P6SM SCT025 BKN060
     FM291200 34012KT P6SM SKC
     FM300000 27005KT P6SM SKC=



000
FTUS43 KDMX 290620 AAA
TAFDSM
TAF AMD
KDSM 290620Z 2906/3006 32005KT P6SM BKN040
      TEMPO 2906/2908 BKN007
     FM290900 34008KT P6SM SKC
     FM291600 30013G20KT P6SM SKC
     FM300000 26006KT P6SM SKC=



000
FTUS43 KDMX 290620 AAA
TAFDSM
TAF AMD
KDSM 290620Z 2906/3006 32005KT P6SM BKN040
      TEMPO 2906/2908 BKN007
     FM290900 34008KT P6SM SKC
     FM291600 30013G20KT P6SM SKC
     FM300000 26006KT P6SM SKC=



000
FTUS43 KDMX 290538
TAFDSM
TAF
KDSM 290538Z 2906/3006 32005KT P6SM BKN040
     FM290900 34008KT P6SM SKC
     FM291600 30013G20KT P6SM SKC
     FM300000 26006KT P6SM SKC=



000
FTUS43 KDMX 290538
TAFOTM
TAF
KOTM 290538Z 2906/3006 24007KT 5SM -TSRA BKN040CB OVC100
     FM290800 33008KT P6SM SCT025 BKN060
     FM291200 34012KT P6SM SKC
     FM300000 27005KT P6SM SKC=



000
FTUS43 KDMX 290538
TAFALO
TAF
KALO 290538Z 2906/3006 29005KT P6SM -SHRA OVC050
     FM290700 31006KT P6SM BKN070
     FM291000 30007KT P6SM SKC
     FM291600 28015G22KT P6SM SKC
     FM300000 26005KT P6SM SKC=



000
FTUS43 KDMX 290538
TAFFOD
TAF
KFOD 290538Z 2906/3006 29005KT P6SM BKN150
     FM290800 31004KT P6SM SKC
     FM291600 28012G19KT P6SM SKC
     FM300000 25003KT P6SM SKC=



000
FTUS43 KDMX 290538
TAFMCW
TAF
KMCW 290538Z 2906/3006 30008KT P6SM BKN070
     FM290800 29007KT P6SM SKC
     FM291600 29018G26KT P6SM SKC
     FM300000 27007KT P6SM SKC=



000
FTUS43 KDMX 290538
TAFALO
TAF
KALO 290538Z 2906/3006 29005KT P6SM -SHRA OVC050
     FM290700 31006KT P6SM BKN070
     FM291000 30007KT P6SM SKC
     FM291600 28015G22KT P6SM SKC
     FM300000 26005KT P6SM SKC=



000
FTUS43 KDMX 290538
TAFDSM
TAF
KDSM 290538Z 2906/3006 32005KT P6SM BKN040
     FM290900 34008KT P6SM SKC
     FM291600 30013G20KT P6SM SKC
     FM300000 26006KT P6SM SKC=



000
FTUS43 KDMX 290538
TAFALO
TAF
KALO 290538Z 2906/3006 29005KT P6SM -SHRA OVC050
     FM290700 31006KT P6SM BKN070
     FM291000 30007KT P6SM SKC
     FM291600 28015G22KT P6SM SKC
     FM300000 26005KT P6SM SKC=



000
FTUS43 KDMX 290538
TAFOTM
TAF
KOTM 290538Z 2906/3006 24007KT 5SM -TSRA BKN040CB OVC100
     FM290800 33008KT P6SM SCT025 BKN060
     FM291200 34012KT P6SM SKC
     FM300000 27005KT P6SM SKC=



000
FTUS43 KDMX 290538
TAFFOD
TAF
KFOD 290538Z 2906/3006 29005KT P6SM BKN150
     FM290800 31004KT P6SM SKC
     FM291600 28012G19KT P6SM SKC
     FM300000 25003KT P6SM SKC=



000
FTUS43 KDMX 290538
TAFFOD
TAF
KFOD 290538Z 2906/3006 29005KT P6SM BKN150
     FM290800 31004KT P6SM SKC
     FM291600 28012G19KT P6SM SKC
     FM300000 25003KT P6SM SKC=



000
FTUS43 KDMX 290538
TAFDSM
TAF
KDSM 290538Z 2906/3006 32005KT P6SM BKN040
     FM290900 34008KT P6SM SKC
     FM291600 30013G20KT P6SM SKC
     FM300000 26006KT P6SM SKC=



000
FTUS43 KDMX 290538
TAFOTM
TAF
KOTM 290538Z 2906/3006 24007KT 5SM -TSRA BKN040CB OVC100
     FM290800 33008KT P6SM SCT025 BKN060
     FM291200 34012KT P6SM SKC
     FM300000 27005KT P6SM SKC=



000
FTUS43 KDMX 290538
TAFMCW
TAF
KMCW 290538Z 2906/3006 30008KT P6SM BKN070
     FM290800 29007KT P6SM SKC
     FM291600 29018G26KT P6SM SKC
     FM300000 27007KT P6SM SKC=



000
FTUS43 KDMX 290447 AAC
TAFOTM
TAF AMD
KOTM 290447Z 2905/2924 VRB05KT 6SM -TSRA SCT015 OVC040CB
     FM290800 15008KT P6SM SCT025 BKN060
     FM291100 34010KT P6SM SKC
     FM291600 31009KT P6SM SKC=



000
FTUS43 KDMX 290447 AAC
TAFOTM
TAF AMD
KOTM 290447Z 2905/2924 VRB05KT 6SM -TSRA SCT015 OVC040CB
     FM290800 15008KT P6SM SCT025 BKN060
     FM291100 34010KT P6SM SKC
     FM291600 31009KT P6SM SKC=



000
FTUS43 KDMX 290446 AAD
TAFDSM
TAF AMD
KDSM 290446Z 2905/2924 VRB05KT 6SM -TSRA BKN035 BKN060CB
     FM290530 15008KT P6SM SCT025 BKN060
     FM290900 34011KT P6SM SKC
     FM291600 30012G18KT P6SM SKC=



000
FTUS43 KDMX 290446 AAD
TAFDSM
TAF AMD
KDSM 290446Z 2905/2924 VRB05KT 6SM -TSRA BKN035 BKN060CB
     FM290530 15008KT P6SM SCT025 BKN060
     FM290900 34011KT P6SM SKC
     FM291600 30012G18KT P6SM SKC=



000
FTUS43 KDMX 290445 AAA
TAFALO
TAF AMD
KALO 290445Z 2905/2924 26007KT P6SM -SHRA BKN025 OVC060
     FM290600 31008KT P6SM BKN035 OVC060
     FM290900 31008KT P6SM SKC
     FM291600 28015G22KT P6SM SKC=



000
FTUS43 KDMX 290445 AAA
TAFALO
TAF AMD
KALO 290445Z 2905/2924 26007KT P6SM -SHRA BKN025 OVC060
     FM290600 31008KT P6SM BKN035 OVC060
     FM290900 31008KT P6SM SKC
     FM291600 28015G22KT P6SM SKC=



000
FTUS43 KDMX 290317 AAC
TAFDSM
TAF AMD
KDSM 290317Z 2903/2924 19009KT 6SM -TSRA BKN035 BKN060CB
     FM290415 12008KT P6SM SCT025 BKN060
     FM290700 34011KT P6SM SKC
     FM291600 30012G18KT P6SM SKC=



000
FTUS43 KDMX 290317 AAC
TAFDSM
TAF AMD
KDSM 290317Z 2903/2924 19009KT 6SM -TSRA BKN035 BKN060CB
     FM290415 12008KT P6SM SCT025 BKN060
     FM290700 34011KT P6SM SKC
     FM291600 30012G18KT P6SM SKC=



000
FTUS43 KDMX 290312 AAB
TAFOTM
TAF AMD
KOTM 290312Z 2903/2924 15010KT 3SM TSRA SCT015 OVC040CB
     FM290600 33010KT P6SM SCT025 BKN060
     FM290900 34010KT P6SM SKC
     FM291600 31009KT P6SM SKC=



000
FTUS43 KDMX 290312 AAB
TAFOTM
TAF AMD
KOTM 290312Z 2903/2924 15010KT 3SM TSRA SCT015 OVC040CB
     FM290600 33010KT P6SM SCT025 BKN060
     FM290900 34010KT P6SM SKC
     FM291600 31009KT P6SM SKC=



000
FTUS43 KDMX 290312 AAB
TAFOTM
TAF AMD
KOTM 290312Z 2903/2924 15010KT 3SM TSRA SCT015 OVC040CB
     FM290600 33010KT P6SM SCT025 BKN060
     FM290900 34010KT P6SM SKC
     FM291600 31009KT P6SM SKC=



000
FTUS43 KDMX 290242 AAB
TAFDSM
TAF AMD
KDSM 290242Z 2903/2924 15010KT 5SM -TSRA BKN035 BKN060CB
     FM290315 33008KT P6SM SCT025 BKN060
     FM290700 34011KT P6SM SKC
     FM291600 30012G18KT P6SM SKC=



000
FTUS43 KDMX 290242 AAB
TAFDSM
TAF AMD
KDSM 290242Z 2903/2924 15010KT 5SM -TSRA BKN035 BKN060CB
     FM290315 33008KT P6SM SCT025 BKN060
     FM290700 34011KT P6SM SKC
     FM291600 30012G18KT P6SM SKC=



000
FTUS43 KDMX 290242 AAB
TAFDSM
TAF AMD
KDSM 290242Z 2903/2924 15010KT 5SM -TSRA BKN035 BKN060CB
     FM290315 33008KT P6SM SCT025 BKN060
     FM290700 34011KT P6SM SKC
     FM291600 30012G18KT P6SM SKC=



000
FTUS43 KDMX 290242 AAB
TAFDSM
TAF AMD
KDSM 290242Z 2903/2924 15010KT 5SM -TSRA BKN035 BKN060CB
     FM290315 33008KT P6SM SCT025 BKN060
     FM290700 34011KT P6SM SKC
     FM291600 30012G18KT P6SM SKC=



000
FTUS43 KDMX 290116 AAA
TAFOTM
TAF AMD
KOTM 290116Z 2901/2924 10010KT P6SM BKN040 OVC090
      TEMPO 2903/2905 34020G30KT 2SM TSRA BKN015CB
     FM290600 33010KT P6SM SCT025 BKN060
     FM290900 34010KT P6SM SKC
     FM291600 31009KT P6SM SKC=



000
FTUS43 KDMX 290116 AAA
TAFOTM
TAF AMD
KOTM 290116Z 2901/2924 10010KT P6SM BKN040 OVC090
      TEMPO 2903/2905 34020G30KT 2SM TSRA BKN015CB
     FM290600 33010KT P6SM SCT025 BKN060
     FM290900 34010KT P6SM SKC
     FM291600 31009KT P6SM SKC=



000
FTUS43 KDMX 290116 AAA
TAFOTM
TAF AMD
KOTM 290116Z 2901/2924 10010KT P6SM BKN040 OVC090
      TEMPO 2903/2905 34020G30KT 2SM TSRA BKN015CB
     FM290600 33010KT P6SM SCT025 BKN060
     FM290900 34010KT P6SM SKC
     FM291600 31009KT P6SM SKC=



000
FTUS43 KDMX 290114 AAA
TAFDSM
TAF AMD
KDSM 290114Z 2901/2924 32015KT 2SM TSRA BKN015CB OVC040
     FM290400 33008KT P6SM SCT025 BKN060
     FM290700 34011KT P6SM SKC
     FM291600 30012G18KT P6SM SKC=



000
FTUS43 KDMX 290114 AAA
TAFDSM
TAF AMD
KDSM 290114Z 2901/2924 32015KT 2SM TSRA BKN015CB OVC040
     FM290400 33008KT P6SM SCT025 BKN060
     FM290700 34011KT P6SM SKC
     FM291600 30012G18KT P6SM SKC=



000
FTUS43 KDMX 290114 AAA
TAFDSM
TAF AMD
KDSM 290114Z 2901/2924 32015KT 2SM TSRA BKN015CB OVC040
     FM290400 33008KT P6SM SCT025 BKN060
     FM290700 34011KT P6SM SKC
     FM291600 30012G18KT P6SM SKC=



000
FTUS43 KDMX 290114 AAA
TAFDSM
TAF AMD
KDSM 290114Z 2901/2924 32015KT 2SM TSRA BKN015CB OVC040
     FM290400 33008KT P6SM SCT025 BKN060
     FM290700 34011KT P6SM SKC
     FM291600 30012G18KT P6SM SKC=



000
FTUS43 KDMX 282341
TAFOTM
TAF
KOTM 282341Z 2900/2924 10010KT P6SM BKN040 OVC090
      TEMPO 2900/2904 34020G30KT 5SM TSRA BKN035CB
     FM290600 33010KT P6SM SCT025 BKN060
     FM290900 34010KT P6SM SKC
     FM291600 31009KT P6SM SKC=



000
FTUS43 KDMX 282341
TAFOTM
TAF
KOTM 282341Z 2900/2924 10010KT P6SM BKN040 OVC090
      TEMPO 2900/2904 34020G30KT 5SM TSRA BKN035CB
     FM290600 33010KT P6SM SCT025 BKN060
     FM290900 34010KT P6SM SKC
     FM291600 31009KT P6SM SKC=



000
FTUS43 KDMX 282341
TAFOTM
TAF
KOTM 282341Z 2900/2924 10010KT P6SM BKN040 OVC090
      TEMPO 2900/2904 34020G30KT 5SM TSRA BKN035CB
     FM290600 33010KT P6SM SCT025 BKN060
     FM290900 34010KT P6SM SKC
     FM291600 31009KT P6SM SKC=



000
FTUS43 KDMX 282333
TAFDSM
TAF
KDSM 282333Z 2900/2924 14009KT P6SM BKN040
      TEMPO 2900/2902 5SM TSRA BKN035CB
     FM290400 33008KT P6SM SCT025 BKN060
     FM290700 34011KT P6SM SKC
     FM291600 30012G18KT P6SM SKC=



000
FTUS43 KDMX 282333
TAFDSM
TAF
KDSM 282333Z 2900/2924 14009KT P6SM BKN040
      TEMPO 2900/2902 5SM TSRA BKN035CB
     FM290400 33008KT P6SM SCT025 BKN060
     FM290700 34011KT P6SM SKC
     FM291600 30012G18KT P6SM SKC=



000
FTUS43 KDMX 282324
TAFFOD
TAF
KFOD 282324Z 2900/2924 24008KT P6SM SCT025 BKN060
     FM290100 31009KT P6SM BKN060
     FM290400 31004KT P6SM SKC
     FM291600 28012G19KT P6SM SKC=



000
FTUS43 KDMX 282324
TAFALO
TAF
KALO 282324Z 2900/2924 VRB04KT P6SM VCSH BKN060 OVC150
     FM290200 24007KT P6SM BKN025 OVC060
     FM290400 31008KT P6SM SCT025 BKN060
     FM290600 31008KT P6SM SKC
     FM291600 28015G22KT P6SM SKC=



000
FTUS43 KDMX 282324
TAFFOD
TAF
KFOD 282324Z 2900/2924 24008KT P6SM SCT025 BKN060
     FM290100 31009KT P6SM BKN060
     FM290400 31004KT P6SM SKC
     FM291600 28012G19KT P6SM SKC=



000
FTUS43 KDMX 282324
TAFALO
TAF
KALO 282324Z 2900/2924 VRB04KT P6SM VCSH BKN060 OVC150
     FM290200 24007KT P6SM BKN025 OVC060
     FM290400 31008KT P6SM SCT025 BKN060
     FM290600 31008KT P6SM SKC
     FM291600 28015G22KT P6SM SKC=



000
FTUS43 KDMX 282324
TAFMCW
TAF
KMCW 282324Z 2900/2924 25008KT P6SM BKN025 OVC060
     FM290100 30008KT P6SM SCT025 BKN060
     FM290400 30007KT P6SM SKC
     FM291600 28017G25KT P6SM SKC=



000
FTUS43 KDMX 282324
TAFMCW
TAF
KMCW 282324Z 2900/2924 25008KT P6SM BKN025 OVC060
     FM290100 30008KT P6SM SCT025 BKN060
     FM290400 30007KT P6SM SKC
     FM291600 28017G25KT P6SM SKC=



000
FTUS43 KDMX 282212 AAB
TAFDSM
TAF AMD
KDSM 282212Z 2822/2918 15011KT 6SM -TSRA SCT008 BKN040CB
     FM290000 22005KT P6SM VCSH BKN050
     FM290200 VRB05KT P6SM SCT035 BKN120
     FM290600 32010KT P6SM SCT050=



000
FTUS43 KDMX 282212 AAB
TAFDSM
TAF AMD
KDSM 282212Z 2822/2918 15011KT 6SM -TSRA SCT008 BKN040CB
     FM290000 22005KT P6SM VCSH BKN050
     FM290200 VRB05KT P6SM SCT035 BKN120
     FM290600 32010KT P6SM SCT050=



000
FTUS43 KDMX 282212 AAB
TAFDSM
TAF AMD
KDSM 282212Z 2822/2918 15011KT 6SM -TSRA SCT008 BKN040CB
     FM290000 22005KT P6SM VCSH BKN050
     FM290200 VRB05KT P6SM SCT035 BKN120
     FM290600 32010KT P6SM SCT050=



000
FTUS43 KDMX 282212 AAB
TAFDSM
TAF AMD
KDSM 282212Z 2822/2918 15011KT 6SM -TSRA SCT008 BKN040CB
     FM290000 22005KT P6SM VCSH BKN050
     FM290200 VRB05KT P6SM SCT035 BKN120
     FM290600 32010KT P6SM SCT050=



000
FTUS43 KDMX 282129 AAA
TAFMCW
TAF AMD
KMCW 282129Z 2821/2918 19011KT P6SM VCSH SCT020 BKN040 OVC100
     FM290100 33006KT P6SM SCT040 BKN120
     FM290800 29010KT P6SM SCT050=



000
FTUS43 KDMX 282129 AAA
TAFMCW
TAF AMD
KMCW 282129Z 2821/2918 19011KT P6SM VCSH SCT020 BKN040 OVC100
     FM290100 33006KT P6SM SCT040 BKN120
     FM290800 29010KT P6SM SCT050=



000
FTUS43 KDMX 282127 AAA
TAFALO
TAF AMD
KALO 282127Z 2821/2918 19007KT P6SM FEW030 SCT060 BKN120
     FM290000 18010KT P6SM VCTS BKN040CB OVC100
     FM290400 30010KT P6SM SCT040 BKN120=



000
FTUS43 KDMX 282127 AAA
TAFALO
TAF AMD
KALO 282127Z 2821/2918 19007KT P6SM FEW030 SCT060 BKN120
     FM290000 18010KT P6SM VCTS BKN040CB OVC100
     FM290400 30010KT P6SM SCT040 BKN120=



000
FTUS43 KDMX 282126 AAA
TAFDSM
TAF AMD
KDSM 282126Z 2821/2918 VRB05KT P6SM -TSRA BKN050CB
     FM290000 22005KT P6SM VCSH BKN050
     FM290200 VRB05KT P6SM SCT035 BKN120
     FM290600 32010KT P6SM SCT050=



000
FTUS43 KDMX 282126 AAA
TAFDSM
TAF AMD
KDSM 282126Z 2821/2918 VRB05KT P6SM -TSRA BKN050CB
     FM290000 22005KT P6SM VCSH BKN050
     FM290200 VRB05KT P6SM SCT035 BKN120
     FM290600 32010KT P6SM SCT050=



000
FTUS43 KDMX 282126 AAA
TAFDSM
TAF AMD
KDSM 282126Z 2821/2918 VRB05KT P6SM -TSRA BKN050CB
     FM290000 22005KT P6SM VCSH BKN050
     FM290200 VRB05KT P6SM SCT035 BKN120
     FM290600 32010KT P6SM SCT050=



000
FTUS43 KDMX 282126 AAA
TAFDSM
TAF AMD
KDSM 282126Z 2821/2918 VRB05KT P6SM -TSRA BKN050CB
     FM290000 22005KT P6SM VCSH BKN050
     FM290200 VRB05KT P6SM SCT035 BKN120
     FM290600 32010KT P6SM SCT050=



000
FTUS43 KDMX 281731
TAFALO
TAF
KALO 281731Z 2818/2918 15012G17KT P6SM FEW030 SCT060 BKN120
     FM290000 18010KT P6SM VCTS BKN040CB OVC100
     FM290400 30010KT P6SM SCT040 BKN120=



000
FTUS43 KDMX 281731
TAFALO
TAF
KALO 281731Z 2818/2918 15012G17KT P6SM FEW030 SCT060 BKN120
     FM290000 18010KT P6SM VCTS BKN040CB OVC100
     FM290400 30010KT P6SM SCT040 BKN120=



000
FTUS43 KDMX 281731
TAFFOD
TAF
KFOD 281731Z 2818/2918 14011KT P6SM VCTS FEW020CB SCT030 BKN080
     FM282100 20009KT P6SM BKN040 OVC100
     FM290100 33005KT P6SM SCT040 BKN120
     FM291100 29010KT P6SM SCT050=



000
FTUS43 KDMX 281731
TAFALO
TAF
KALO 281731Z 2818/2918 15012G17KT P6SM FEW030 SCT060 BKN120
     FM290000 18010KT P6SM VCTS BKN040CB OVC100
     FM290400 30010KT P6SM SCT040 BKN120=



000
FTUS43 KDMX 281731
TAFDSM
TAF
KDSM 281731Z 2818/2918 12011G17KT P6SM FEW035 SCT060 BKN120
     FM282200 18010KT P6SM VCTS BKN035CB OVC100
     FM290300 VRB05KT P6SM SCT035 BKN120
     FM290600 32010KT P6SM SCT050=



000
FTUS43 KDMX 281731
TAFDSM
TAF
KDSM 281731Z 2818/2918 12011G17KT P6SM FEW035 SCT060 BKN120
     FM282200 18010KT P6SM VCTS BKN035CB OVC100
     FM290300 VRB05KT P6SM SCT035 BKN120
     FM290600 32010KT P6SM SCT050=



000
FTUS43 KDMX 281731
TAFOTM
TAF
KOTM 281731Z 2818/2918 10010KT P6SM FEW030 SCT150
     FM290000 20010KT P6SM VCTS BKN035CB OVC100
     FM290700 32010KT P6SM SCT035 BKN120=



000
FTUS43 KDMX 281731
TAFMCW
TAF
KMCW 281731Z 2818/2918 13010KT P6SM FEW080 BKN150
     FM282300 19011KT P6SM VCTS SCT020 BKN040CB OVC100
     FM290200 33006KT P6SM SCT040 BKN120
     FM290800 29010KT P6SM SCT050=



000
FTUS43 KDMX 281731
TAFALO
TAF
KALO 281731Z 2818/2918 15012G17KT P6SM FEW030 SCT060 BKN120
     FM290000 18010KT P6SM VCTS BKN040CB OVC100
     FM290400 30010KT P6SM SCT040 BKN120=



000
FTUS43 KDMX 281731
TAFFOD
TAF
KFOD 281731Z 2818/2918 14011KT P6SM VCTS FEW020CB SCT030 BKN080
     FM282100 20009KT P6SM BKN040 OVC100
     FM290100 33005KT P6SM SCT040 BKN120
     FM291100 29010KT P6SM SCT050=



000
FTUS43 KDMX 281731
TAFOTM
TAF
KOTM 281731Z 2818/2918 10010KT P6SM FEW030 SCT150
     FM290000 20010KT P6SM VCTS BKN035CB OVC100
     FM290700 32010KT P6SM SCT035 BKN120=



000
FTUS43 KDMX 281731
TAFOTM
TAF
KOTM 281731Z 2818/2918 10010KT P6SM FEW030 SCT150
     FM290000 20010KT P6SM VCTS BKN035CB OVC100
     FM290700 32010KT P6SM SCT035 BKN120=



000
FTUS43 KDMX 281731
TAFMCW
TAF
KMCW 281731Z 2818/2918 13010KT P6SM FEW080 BKN150
     FM282300 19011KT P6SM VCTS SCT020 BKN040CB OVC100
     FM290200 33006KT P6SM SCT040 BKN120
     FM290800 29010KT P6SM SCT050=



000
FTUS43 KDMX 281731
TAFDSM
TAF
KDSM 281731Z 2818/2918 12011G17KT P6SM FEW035 SCT060 BKN120
     FM282200 18010KT P6SM VCTS BKN035CB OVC100
     FM290300 VRB05KT P6SM SCT035 BKN120
     FM290600 32010KT P6SM SCT050=



000
FTUS43 KDMX 281731
TAFFOD
TAF
KFOD 281731Z 2818/2918 14011KT P6SM VCTS FEW020CB SCT030 BKN080
     FM282100 20009KT P6SM BKN040 OVC100
     FM290100 33005KT P6SM SCT040 BKN120
     FM291100 29010KT P6SM SCT050=



000
FTUS43 KDMX 281731
TAFOTM
TAF
KOTM 281731Z 2818/2918 10010KT P6SM FEW030 SCT150
     FM290000 20010KT P6SM VCTS BKN035CB OVC100
     FM290700 32010KT P6SM SCT035 BKN120=



000
FTUS43 KDMX 281731
TAFFOD
TAF
KFOD 281731Z 2818/2918 14011KT P6SM VCTS FEW020CB SCT030 BKN080
     FM282100 20009KT P6SM BKN040 OVC100
     FM290100 33005KT P6SM SCT040 BKN120
     FM291100 29010KT P6SM SCT050=



000
FTUS43 KDMX 281731
TAFDSM
TAF
KDSM 281731Z 2818/2918 12011G17KT P6SM FEW035 SCT060 BKN120
     FM282200 18010KT P6SM VCTS BKN035CB OVC100
     FM290300 VRB05KT P6SM SCT035 BKN120
     FM290600 32010KT P6SM SCT050=



000
FTUS43 KDMX 281634 AAA
TAFFOD
TAF AMD
KFOD 281634Z 2817/2912 18011KT P6SM FEW030 SCT060 BKN120
     FM282100 20009KT P6SM VCTS BKN040CB OVC100
     FM290100 VRB05KT P6SM SCT040 BKN120
     FM290300 29007KT P6SM SCT050=



000
FTUS43 KDMX 281634 AAA
TAFFOD
TAF AMD
KFOD 281634Z 2817/2912 18011KT P6SM FEW030 SCT060 BKN120
     FM282100 20009KT P6SM VCTS BKN040CB OVC100
     FM290100 VRB05KT P6SM SCT040 BKN120
     FM290300 29007KT P6SM SCT050=



000
FTUS43 KDMX 281503 AAB
TAFDSM
TAF AMD
KDSM 281503Z 2815/2912 35010KT P6SM VCTS SCT015CB BKN050
      TEMPO 2815/2817 6SM TSRA SCT015CB BKN035 OVC050
     FM281700 18011G17KT P6SM FEW035 SCT060 BKN120
     FM282200 18010KT P6SM VCTS BKN035CB OVC100
     FM290300 VRB05KT P6SM SCT035 BKN120
     FM290600 31007KT P6SM SCT050=



000
FTUS43 KDMX 281503 AAB
TAFDSM
TAF AMD
KDSM 281503Z 2815/2912 35010KT P6SM VCTS SCT015CB BKN050
      TEMPO 2815/2817 6SM TSRA SCT015CB BKN035 OVC050
     FM281700 18011G17KT P6SM FEW035 SCT060 BKN120
     FM282200 18010KT P6SM VCTS BKN035CB OVC100
     FM290300 VRB05KT P6SM SCT035 BKN120
     FM290600 31007KT P6SM SCT050=



000
FTUS43 KDMX 281503 AAB
TAFDSM
TAF AMD
KDSM 281503Z 2815/2912 35010KT P6SM VCTS SCT015CB BKN050
      TEMPO 2815/2817 6SM TSRA SCT015CB BKN035 OVC050
     FM281700 18011G17KT P6SM FEW035 SCT060 BKN120
     FM282200 18010KT P6SM VCTS BKN035CB OVC100
     FM290300 VRB05KT P6SM SCT035 BKN120
     FM290600 31007KT P6SM SCT050=



000
FTUS43 KDMX 281503 AAB
TAFDSM
TAF AMD
KDSM 281503Z 2815/2912 35010KT P6SM VCTS SCT015CB BKN050
      TEMPO 2815/2817 6SM TSRA SCT015CB BKN035 OVC050
     FM281700 18011G17KT P6SM FEW035 SCT060 BKN120
     FM282200 18010KT P6SM VCTS BKN035CB OVC100
     FM290300 VRB05KT P6SM SCT035 BKN120
     FM290600 31007KT P6SM SCT050=



000
FTUS43 KDMX 281411 AAA
TAFALO
TAF AMD
KALO 281411Z 2814/2912 16010KT 6SM BR VCTS FEW012 SCT035 OVC045CB
     FM281500 34012G20KT 6SM TSRA SCT010 BKN025 OVC030CB
      TEMPO 2815/2817 3SM TSRA BKN011CB OVC030
     FM281700 17011G17KT P6SM FEW030 SCT060 BKN120
     FM282100 18010KT P6SM VCTS BKN040CB OVC100
     FM290200 VRB05KT P6SM SCT040 BKN120
     FM290700 29007KT P6SM SCT050=



000
FTUS43 KDMX 281411 AAA
TAFALO
TAF AMD
KALO 281411Z 2814/2912 16010KT 6SM BR VCTS FEW012 SCT035 OVC045CB
     FM281500 34012G20KT 6SM TSRA SCT010 BKN025 OVC030CB
      TEMPO 2815/2817 3SM TSRA BKN011CB OVC030
     FM281700 17011G17KT P6SM FEW030 SCT060 BKN120
     FM282100 18010KT P6SM VCTS BKN040CB OVC100
     FM290200 VRB05KT P6SM SCT040 BKN120
     FM290700 29007KT P6SM SCT050=



000
FTUS43 KDMX 281411 AAA
TAFALO
TAF AMD
KALO 281411Z 2814/2912 16010KT 6SM BR VCTS FEW012 SCT035 OVC045CB
     FM281500 34012G20KT 6SM TSRA SCT010 BKN025 OVC030CB
      TEMPO 2815/2817 3SM TSRA BKN011CB OVC030
     FM281700 17011G17KT P6SM FEW030 SCT060 BKN120
     FM282100 18010KT P6SM VCTS BKN040CB OVC100
     FM290200 VRB05KT P6SM SCT040 BKN120
     FM290700 29007KT P6SM SCT050=



000
FTUS43 KDMX 281409 AAA
TAFMCW
TAF AMD
KMCW 281409Z 2814/2912 09010KT 4SM BR VCTS FEW008 SCT030 OVC040CB
     FM281530 18012G18KT P6SM FEW030 SCT060 BKN120
     FM282100 19011KT P6SM VCTS BKN040CB OVC100
     FM290100 VRB06KT P6SM SCT040 BKN120
     FM290500 29008KT P6SM SCT050=



000
FTUS43 KDMX 281409 AAA
TAFMCW
TAF AMD
KMCW 281409Z 2814/2912 09010KT 4SM BR VCTS FEW008 SCT030 OVC040CB
     FM281530 18012G18KT P6SM FEW030 SCT060 BKN120
     FM282100 19011KT P6SM VCTS BKN040CB OVC100
     FM290100 VRB06KT P6SM SCT040 BKN120
     FM290500 29008KT P6SM SCT050=



000
FTUS43 KDMX 281325 AAA
TAFDSM
TAF AMD
KDSM 281325Z 2813/2912 34012G20KT P6SM VCTS FEW010 SCT035 BKN050CB
     FM281400 32010G16KT 4SM TSRA SCT015CB BKN020
      TEMPO 2814/2816 2SM TSRA SCT004CB BKN015 OVC020
     FM281600 18011G17KT P6SM FEW035 SCT060 BKN120
     FM282200 18010KT P6SM VCTS BKN035CB OVC100
     FM290300 VRB05KT P6SM SCT035 BKN120
     FM290600 31007KT P6SM SCT050=



000
FTUS43 KDMX 281325 AAA
TAFDSM
TAF AMD
KDSM 281325Z 2813/2912 34012G20KT P6SM VCTS FEW010 SCT035 BKN050CB
     FM281400 32010G16KT 4SM TSRA SCT015CB BKN020
      TEMPO 2814/2816 2SM TSRA SCT004CB BKN015 OVC020
     FM281600 18011G17KT P6SM FEW035 SCT060 BKN120
     FM282200 18010KT P6SM VCTS BKN035CB OVC100
     FM290300 VRB05KT P6SM SCT035 BKN120
     FM290600 31007KT P6SM SCT050=



000
FTUS43 KDMX 281130
TAFDSM
TAF
KDSM 281130Z 2812/2912 16009KT P6SM FEW006 SCT120
     FM281300 17011KT P6SM VCTS FEW010 SCT035 BKN050CB
     FM281600 18011G17KT P6SM FEW035 SCT060 BKN120
     FM282200 18010KT P6SM VCTS BKN035CB OVC100
     FM290300 VRB05KT P6SM SCT035 BKN120
     FM290600 31007KT P6SM SCT050=



000
FTUS43 KDMX 281130
TAFALO
TAF
KALO 281130Z 2812/2912 16010KT 6SM BR SCT006 BKN060
     FM281300 16010KT 6SM BR VCTS FEW012 SCT035 OVC045CB
      TEMPO 2813/2815 29015G25KT 3SM TSRA BKN011CB
     FM281600 17011G17KT P6SM FEW030 SCT060 BKN120
     FM282100 18010KT P6SM VCTS BKN040CB OVC100
     FM290200 VRB05KT P6SM SCT040 BKN120
     FM290700 29007KT P6SM SCT050=



000
FTUS43 KDMX 281130
TAFOTM
TAF
KOTM 281130Z 2812/2912 16009KT 6SM BR FEW005 SCT200
     FM281400 17010KT P6SM FEW030 SCT150
     FM290000 VRB06KT P6SM VCTS BKN035CB OVC100
     FM290800 32007KT 6SM BR SCT035 BKN120=



000
FTUS43 KDMX 281130
TAFMCW
TAF
KMCW 281130Z 2812/2912 16010KT 6SM BR VCTS FEW008 SCT030 OVC040CB
      TEMPO 2812/2814 29015G25KT 2SM TSRA BKN007CB
     FM281500 18012G18KT P6SM FEW030 SCT060 BKN120
     FM282100 19011KT P6SM VCTS BKN040CB OVC100
     FM290100 VRB06KT P6SM SCT040 BKN120
     FM290500 29008KT P6SM SCT050=



000
FTUS43 KDMX 281130
TAFFOD
TAF
KFOD 281130Z 2812/2912 16008KT 6SM BR VCTS FEW008 SCT030 OVC040CB
      TEMPO 2812/2813 31015G25KT 2SM TSRA BKN007CB
     FM281400 18011G17KT P6SM FEW030 SCT060 BKN120
     FM282100 20009KT P6SM VCTS BKN040CB OVC100
     FM290100 VRB05KT P6SM SCT040 BKN120
     FM290300 29007KT P6SM SCT050=



000
FTUS43 KDMX 281130
TAFOTM
TAF
KOTM 281130Z 2812/2912 16009KT 6SM BR FEW005 SCT200
     FM281400 17010KT P6SM FEW030 SCT150
     FM290000 VRB06KT P6SM VCTS BKN035CB OVC100
     FM290800 32007KT 6SM BR SCT035 BKN120=



000
FTUS43 KDMX 281130
TAFALO
TAF
KALO 281130Z 2812/2912 16010KT 6SM BR SCT006 BKN060
     FM281300 16010KT 6SM BR VCTS FEW012 SCT035 OVC045CB
      TEMPO 2813/2815 29015G25KT 3SM TSRA BKN011CB
     FM281600 17011G17KT P6SM FEW030 SCT060 BKN120
     FM282100 18010KT P6SM VCTS BKN040CB OVC100
     FM290200 VRB05KT P6SM SCT040 BKN120
     FM290700 29007KT P6SM SCT050=



000
FTUS43 KDMX 281130
TAFMCW
TAF
KMCW 281130Z 2812/2912 16010KT 6SM BR VCTS FEW008 SCT030 OVC040CB
      TEMPO 2812/2814 29015G25KT 2SM TSRA BKN007CB
     FM281500 18012G18KT P6SM FEW030 SCT060 BKN120
     FM282100 19011KT P6SM VCTS BKN040CB OVC100
     FM290100 VRB06KT P6SM SCT040 BKN120
     FM290500 29008KT P6SM SCT050=



000
FTUS43 KDMX 281130
TAFALO
TAF
KALO 281130Z 2812/2912 16010KT 6SM BR SCT006 BKN060
     FM281300 16010KT 6SM BR VCTS FEW012 SCT035 OVC045CB
      TEMPO 2813/2815 29015G25KT 3SM TSRA BKN011CB
     FM281600 17011G17KT P6SM FEW030 SCT060 BKN120
     FM282100 18010KT P6SM VCTS BKN040CB OVC100
     FM290200 VRB05KT P6SM SCT040 BKN120
     FM290700 29007KT P6SM SCT050=



000
FTUS43 KDMX 281130
TAFDSM
TAF
KDSM 281130Z 2812/2912 16009KT P6SM FEW006 SCT120
     FM281300 17011KT P6SM VCTS FEW010 SCT035 BKN050CB
     FM281600 18011G17KT P6SM FEW035 SCT060 BKN120
     FM282200 18010KT P6SM VCTS BKN035CB OVC100
     FM290300 VRB05KT P6SM SCT035 BKN120
     FM290600 31007KT P6SM SCT050=



000
FTUS43 KDMX 281130
TAFFOD
TAF
KFOD 281130Z 2812/2912 16008KT 6SM BR VCTS FEW008 SCT030 OVC040CB
      TEMPO 2812/2813 31015G25KT 2SM TSRA BKN007CB
     FM281400 18011G17KT P6SM FEW030 SCT060 BKN120
     FM282100 20009KT P6SM VCTS BKN040CB OVC100
     FM290100 VRB05KT P6SM SCT040 BKN120
     FM290300 29007KT P6SM SCT050=



000
FTUS43 KDMX 281130
TAFFOD
TAF
KFOD 281130Z 2812/2912 16008KT 6SM BR VCTS FEW008 SCT030 OVC040CB
      TEMPO 2812/2813 31015G25KT 2SM TSRA BKN007CB
     FM281400 18011G17KT P6SM FEW030 SCT060 BKN120
     FM282100 20009KT P6SM VCTS BKN040CB OVC100
     FM290100 VRB05KT P6SM SCT040 BKN120
     FM290300 29007KT P6SM SCT050=



000
FTUS43 KDMX 281130
TAFMCW
TAF
KMCW 281130Z 2812/2912 16010KT 6SM BR VCTS FEW008 SCT030 OVC040CB
      TEMPO 2812/2814 29015G25KT 2SM TSRA BKN007CB
     FM281500 18012G18KT P6SM FEW030 SCT060 BKN120
     FM282100 19011KT P6SM VCTS BKN040CB OVC100
     FM290100 VRB06KT P6SM SCT040 BKN120
     FM290500 29008KT P6SM SCT050=



000
FTUS43 KDMX 281130
TAFDSM
TAF
KDSM 281130Z 2812/2912 16009KT P6SM FEW006 SCT120
     FM281300 17011KT P6SM VCTS FEW010 SCT035 BKN050CB
     FM281600 18011G17KT P6SM FEW035 SCT060 BKN120
     FM282200 18010KT P6SM VCTS BKN035CB OVC100
     FM290300 VRB05KT P6SM SCT035 BKN120
     FM290600 31007KT P6SM SCT050=



000
FTUS43 KDMX 281130
TAFOTM
TAF
KOTM 281130Z 2812/2912 16009KT 6SM BR FEW005 SCT200
     FM281400 17010KT P6SM FEW030 SCT150
     FM290000 VRB06KT P6SM VCTS BKN035CB OVC100
     FM290800 32007KT 6SM BR SCT035 BKN120=



000
FTUS43 KDMX 281130
TAFALO
TAF
KALO 281130Z 2812/2912 16010KT 6SM BR SCT006 BKN060
     FM281300 16010KT 6SM BR VCTS FEW012 SCT035 OVC045CB
      TEMPO 2813/2815 29015G25KT 3SM TSRA BKN011CB
     FM281600 17011G17KT P6SM FEW030 SCT060 BKN120
     FM282100 18010KT P6SM VCTS BKN040CB OVC100
     FM290200 VRB05KT P6SM SCT040 BKN120
     FM290700 29007KT P6SM SCT050=



000
FTUS43 KDMX 281130
TAFFOD
TAF
KFOD 281130Z 2812/2912 16008KT 6SM BR VCTS FEW008 SCT030 OVC040CB
      TEMPO 2812/2813 31015G25KT 2SM TSRA BKN007CB
     FM281400 18011G17KT P6SM FEW030 SCT060 BKN120
     FM282100 20009KT P6SM VCTS BKN040CB OVC100
     FM290100 VRB05KT P6SM SCT040 BKN120
     FM290300 29007KT P6SM SCT050=



000
FTUS43 KDMX 281130
TAFOTM
TAF
KOTM 281130Z 2812/2912 16009KT 6SM BR FEW005 SCT200
     FM281400 17010KT P6SM FEW030 SCT150
     FM290000 VRB06KT P6SM VCTS BKN035CB OVC100
     FM290800 32007KT 6SM BR SCT035 BKN120=



000
FTUS43 KDMX 281130
TAFMCW
TAF
KMCW 281130Z 2812/2912 16010KT 6SM BR VCTS FEW008 SCT030 OVC040CB
      TEMPO 2812/2814 29015G25KT 2SM TSRA BKN007CB
     FM281500 18012G18KT P6SM FEW030 SCT060 BKN120
     FM282100 19011KT P6SM VCTS BKN040CB OVC100
     FM290100 VRB06KT P6SM SCT040 BKN120
     FM290500 29008KT P6SM SCT050=



000
FTUS43 KDMX 281130
TAFDSM
TAF
KDSM 281130Z 2812/2912 16009KT P6SM FEW006 SCT120
     FM281300 17011KT P6SM VCTS FEW010 SCT035 BKN050CB
     FM281600 18011G17KT P6SM FEW035 SCT060 BKN120
     FM282200 18010KT P6SM VCTS BKN035CB OVC100
     FM290300 VRB05KT P6SM SCT035 BKN120
     FM290600 31007KT P6SM SCT050=



000
FTUS43 KDMX 280743 AAB
TAFOTM
TAF AMD
KOTM 280743Z 2808/2906 14006KT 2SM BR SCT006 BKN100
      TEMPO 2808/2811 1SM BR BKN003
     FM281100 18013KT 6SM BR VCSH SCT050 BKN100
     FM281600 16011G16KT P6SM SCT015 BKN090
     FM282300 18011KT 6SM BR VCTS SCT035CB BKN080=



000
FTUS43 KDMX 280743 AAB
TAFOTM
TAF AMD
KOTM 280743Z 2808/2906 14006KT 2SM BR SCT006 BKN100
      TEMPO 2808/2811 1SM BR BKN003
     FM281100 18013KT 6SM BR VCSH SCT050 BKN100
     FM281600 16011G16KT P6SM SCT015 BKN090
     FM282300 18011KT 6SM BR VCTS SCT035CB BKN080=



000
FTUS43 KDMX 280607 AAA
TAFOTM
TAF AMD
KOTM 280607Z 2806/2906 15006KT 3SM BR FEW008 BKN100
      TEMPO 2806/2808 2SM BR BKN006
     FM281100 18013KT 6SM BR VCSH SCT050 BKN100
     FM281600 16011G16KT P6SM SCT015 BKN090
     FM282300 18011KT 6SM BR VCTS SCT035CB BKN080=



000
FTUS43 KDMX 280607 AAA
TAFOTM
TAF AMD
KOTM 280607Z 2806/2906 15006KT 3SM BR FEW008 BKN100
      TEMPO 2806/2808 2SM BR BKN006
     FM281100 18013KT 6SM BR VCSH SCT050 BKN100
     FM281600 16011G16KT P6SM SCT015 BKN090
     FM282300 18011KT 6SM BR VCTS SCT035CB BKN080=



000
FTUS43 KDMX 280607 AAA
TAFOTM
TAF AMD
KOTM 280607Z 2806/2906 15006KT 3SM BR FEW008 BKN100
      TEMPO 2806/2808 2SM BR BKN006
     FM281100 18013KT 6SM BR VCSH SCT050 BKN100
     FM281600 16011G16KT P6SM SCT015 BKN090
     FM282300 18011KT 6SM BR VCTS SCT035CB BKN080=



000
FTUS43 KDMX 280520
TAFDSM
TAF
KDSM 280520Z 2806/2906 13010KT P6SM SCT020 BKN200
     FM280700 15010KT P6SM SCT025 BKN100
     FM281400 16013KT 6SM BR VCTS SCT015 BKN090CB
     FM281700 16012KT P6SM VCSH SCT020 BKN050
     FM282100 18011G18KT 6SM BR VCTS SCT035CB BKN080
     FM290200 29007KT P6SM VCSH BKN080=



000
FTUS43 KDMX 280520
TAFDSM
TAF
KDSM 280520Z 2806/2906 13010KT P6SM SCT020 BKN200
     FM280700 15010KT P6SM SCT025 BKN100
     FM281400 16013KT 6SM BR VCTS SCT015 BKN090CB
     FM281700 16012KT P6SM VCSH SCT020 BKN050
     FM282100 18011G18KT 6SM BR VCTS SCT035CB BKN080
     FM290200 29007KT P6SM VCSH BKN080=



000
FTUS43 KDMX 280520
TAFFOD
TAF
KFOD 280520Z 2806/2906 10009KT P6SM FEW025 BKN030
     FM281100 16011KT P6SM VCTS SCT025 BKN090CB
     FM281400 16013KT P6SM VCSH SCT030 BKN050
     FM281900 19011KT P6SM VCTS BKN050CB
     FM282300 29011KT P6SM BKN050=



000
FTUS43 KDMX 280520
TAFOTM
TAF
KOTM 280520Z 2806/2906 11010KT P6SM SCT080 BKN110
     FM281100 18013KT 3SM BR VCSH SCT050 BKN100
     FM281600 16011G16KT P6SM SCT015 BKN090
     FM282300 18011KT 6SM BR VCTS SCT035CB BKN080=



000
FTUS43 KDMX 280520
TAFMCW
TAF
KMCW 280520Z 2806/2906 15012KT P6SM SCT035
     FM281200 16011G15KT 5SM BR VCTS SCT015 BKN090CB
     FM281600 17016G22KT P6SM VCSH SCT035 BKN050
     FM282200 21011G18KT 6SM -TSRA BKN035CB
     FM290300 30010KT P6SM BKN040=



000
FTUS43 KDMX 280520
TAFMCW
TAF
KMCW 280520Z 2806/2906 15012KT P6SM SCT035
     FM281200 16011G15KT 5SM BR VCTS SCT015 BKN090CB
     FM281600 17016G22KT P6SM VCSH SCT035 BKN050
     FM282200 21011G18KT 6SM -TSRA BKN035CB
     FM290300 30010KT P6SM BKN040=



000
FTUS43 KDMX 280520
TAFALO
TAF
KALO 280520Z 2806/2906 13011KT P6SM SCT020 BKN130
     FM281300 16014G18KT 5SM BR VCTS SCT015 BKN090CB
     FM281900 16012KT P6SM VCSH SCT010 BKN050
     FM282200 18011G18KT 6SM -TSRA SCT035CB BKN090
     FM290300 30007KT P6SM -SHRA BKN040=



000
FTUS43 KDMX 280520
TAFOTM
TAF
KOTM 280520Z 2806/2906 11010KT P6SM SCT080 BKN110
     FM281100 18013KT 3SM BR VCSH SCT050 BKN100
     FM281600 16011G16KT P6SM SCT015 BKN090
     FM282300 18011KT 6SM BR VCTS SCT035CB BKN080=



000
FTUS43 KDMX 280520
TAFALO
TAF
KALO 280520Z 2806/2906 13011KT P6SM SCT020 BKN130
     FM281300 16014G18KT 5SM BR VCTS SCT015 BKN090CB
     FM281900 16012KT P6SM VCSH SCT010 BKN050
     FM282200 18011G18KT 6SM -TSRA SCT035CB BKN090
     FM290300 30007KT P6SM -SHRA BKN040=



000
FTUS43 KDMX 280520
TAFFOD
TAF
KFOD 280520Z 2806/2906 10009KT P6SM FEW025 BKN030
     FM281100 16011KT P6SM VCTS SCT025 BKN090CB
     FM281400 16013KT P6SM VCSH SCT030 BKN050
     FM281900 19011KT P6SM VCTS BKN050CB
     FM282300 29011KT P6SM BKN050=



000
FTUS43 KDMX 280001 AAA
TAFMCW
TAF AMD
KMCW 280001Z 2800/2824 15012KT P6SM SCT035
     FM281100 16011G15KT 5SM BR VCTS SCT015 BKN090CB
     FM281600 17016G22KT P6SM VCSH SCT035 BKN050
     FM282200 21011G18KT 6SM -TSRA BKN035CB=



000
FTUS43 KDMX 280001 AAA
TAFMCW
TAF AMD
KMCW 280001Z 2800/2824 15012KT P6SM SCT035
     FM281100 16011G15KT 5SM BR VCTS SCT015 BKN090CB
     FM281600 17016G22KT P6SM VCSH SCT035 BKN050
     FM282200 21011G18KT 6SM -TSRA BKN035CB=



000
FTUS43 KDMX 280001 AAA
TAFOTM
TAF AMD
KOTM 280001Z 2800/2824 11010KT P6SM SCT080 BKN110
     FM280130 11010KT P6SM SCT090 BKN110
     FM281100 18014KT 3SM BR VCSH SCT050 BKN100
     FM281600 16011G16KT 5SM BR VCTS SCT015 BKN090CB=



000
FTUS43 KDMX 280001 AAA
TAFOTM
TAF AMD
KOTM 280001Z 2800/2824 11010KT P6SM SCT080 BKN110
     FM280130 11010KT P6SM SCT090 BKN110
     FM281100 18014KT 3SM BR VCSH SCT050 BKN100
     FM281600 16011G16KT 5SM BR VCTS SCT015 BKN090CB=



000
FTUS43 KDMX 280001 AAA
TAFMCW
TAF AMD
KMCW 280001Z 2800/2824 15012KT P6SM SCT035
     FM281100 16011G15KT 5SM BR VCTS SCT015 BKN090CB
     FM281600 17016G22KT P6SM VCSH SCT035 BKN050
     FM282200 21011G18KT 6SM -TSRA BKN035CB=



000
FTUS43 KDMX 280001 AAA
TAFOTM
TAF AMD
KOTM 280001Z 2800/2824 11010KT P6SM SCT080 BKN110
     FM280130 11010KT P6SM SCT090 BKN110
     FM281100 18014KT 3SM BR VCSH SCT050 BKN100
     FM281600 16011G16KT 5SM BR VCTS SCT015 BKN090CB=



000
FTUS43 KDMX 280001 AAA
TAFOTM
TAF AMD
KOTM 280001Z 2800/2824 11010KT P6SM SCT080 BKN110
     FM280130 11010KT P6SM SCT090 BKN110
     FM281100 18014KT 3SM BR VCSH SCT050 BKN100
     FM281600 16011G16KT 5SM BR VCTS SCT015 BKN090CB=



000
FTUS43 KDMX 272330
TAFALO
TAF
KALO 272330Z 2800/2824 13011KT P6SM SCT020 BKN130
     FM281200 16014G18KT 5SM BR VCTS SCT015 BKN090CB
     FM281900 16012KT P6SM VCSH SCT010 BKN050
     FM282200 21011G18KT 6SM -TSRA SCT035CB BKN090=



000
FTUS43 KDMX 272330
TAFMCW
TAF
KMCW 272330Z 2800/2824 12011KT P6SM SCT035
     FM281100 16011G15KT 5SM BR VCTS SCT015 BKN090CB
     FM281600 17016G22KT P6SM VCSH SCT035 BKN050
     FM282200 21011G18KT 6SM -TSRA BKN035CB=



000
FTUS43 KDMX 272330
TAFFOD
TAF
KFOD 272330Z 2800/2824 10009KT P6SM FEW015 BKN035
     FM280900 16011KT P6SM VCTS BKN090CB
     FM281500 16013KT P6SM VCSH SCT030 BKN050
     FM281900 19011KT P6SM VCTS BKN050CB
     FM282300 29011KT P6SM BKN050=



000
FTUS43 KDMX 272330
TAFDSM
TAF
KDSM 272330Z 2800/2824 13010KT P6SM SCT020 BKN200
     FM280600 15010KT P6SM SCT050 BKN100
     FM281100 16014G18KT 5SM BR VCTS SCT015 BKN090CB
     FM281600 16012KT P6SM VCSH SCT020 BKN050=



000
FTUS43 KDMX 272330
TAFOTM
TAF
KOTM 272330Z 2800/2824 11010KT 5SM RA SCT090 BKN110
     FM280130 11010KT P6SM SCT090 BKN110
     FM281100 18014KT 3SM BR VCSH SCT050 BKN100
     FM281600 16011G16KT 5SM BR VCTS SCT015 BKN090CB=



000
FTUS43 KDMX 272330
TAFFOD
TAF
KFOD 272330Z 2800/2824 10009KT P6SM FEW015 BKN035
     FM280900 16011KT P6SM VCTS BKN090CB
     FM281500 16013KT P6SM VCSH SCT030 BKN050
     FM281900 19011KT P6SM VCTS BKN050CB
     FM282300 29011KT P6SM BKN050=



000
FTUS43 KDMX 272330
TAFALO
TAF
KALO 272330Z 2800/2824 13011KT P6SM SCT020 BKN130
     FM281200 16014G18KT 5SM BR VCTS SCT015 BKN090CB
     FM281900 16012KT P6SM VCSH SCT010 BKN050
     FM282200 21011G18KT 6SM -TSRA SCT035CB BKN090=



000
FTUS43 KDMX 272330
TAFDSM
TAF
KDSM 272330Z 2800/2824 13010KT P6SM SCT020 BKN200
     FM280600 15010KT P6SM SCT050 BKN100
     FM281100 16014G18KT 5SM BR VCTS SCT015 BKN090CB
     FM281600 16012KT P6SM VCSH SCT020 BKN050=



000
FTUS43 KDMX 272330
TAFOTM
TAF
KOTM 272330Z 2800/2824 11010KT 5SM RA SCT090 BKN110
     FM280130 11010KT P6SM SCT090 BKN110
     FM281100 18014KT 3SM BR VCSH SCT050 BKN100
     FM281600 16011G16KT 5SM BR VCTS SCT015 BKN090CB=



000
FTUS43 KDMX 272330
TAFMCW
TAF
KMCW 272330Z 2800/2824 12011KT P6SM SCT035
     FM281100 16011G15KT 5SM BR VCTS SCT015 BKN090CB
     FM281600 17016G22KT P6SM VCSH SCT035 BKN050
     FM282200 21011G18KT 6SM -TSRA BKN035CB=



000
FTUS43 KDMX 272309 AAE
TAFOTM
TAF AMD
KOTM 272309Z 2723/2818 VRB07KT 3SM TSRA BR SCT090 BKN110CB
     FM280100 14010KT P6SM VCSH SCT030 BKN050
     FM281600 18014KT P6SM SCT050 BKN100=



000
FTUS43 KDMX 272309 AAE
TAFOTM
TAF AMD
KOTM 272309Z 2723/2818 VRB07KT 3SM TSRA BR SCT090 BKN110CB
     FM280100 14010KT P6SM VCSH SCT030 BKN050
     FM281600 18014KT P6SM SCT050 BKN100=



000
FTUS43 KDMX 272309 AAE
TAFOTM
TAF AMD
KOTM 272309Z 2723/2818 VRB07KT 3SM TSRA BR SCT090 BKN110CB
     FM280100 14010KT P6SM VCSH SCT030 BKN050
     FM281600 18014KT P6SM SCT050 BKN100=



000
FTUS43 KDMX 272255 AAD
TAFOTM
TAF AMD
KOTM 272255Z 2723/2818 VRB07KT 1 1/2SM TSRA BR SCT090 BKN110CB
     FM280100 14010KT P6SM VCSH SCT030 BKN050
     FM281600 18014KT P6SM SCT050 BKN100=



000
FTUS43 KDMX 272255 AAD
TAFOTM
TAF AMD
KOTM 272255Z 2723/2818 VRB07KT 1 1/2SM TSRA BR SCT090 BKN110CB
     FM280100 14010KT P6SM VCSH SCT030 BKN050
     FM281600 18014KT P6SM SCT050 BKN100=



000
FTUS43 KDMX 272220 AAC
TAFOTM
TAF AMD
KOTM 272220Z 2722/2818 VRB10KT 4SM TS BR BKN110CB
     FM272300 14010KT P6SM SCT030 BKN050
     FM281600 18014KT P6SM SCT050 BKN100=



000
FTUS43 KDMX 272220 AAC
TAFOTM
TAF AMD
KOTM 272220Z 2722/2818 VRB10KT 4SM TS BR BKN110CB
     FM272300 14010KT P6SM SCT030 BKN050
     FM281600 18014KT P6SM SCT050 BKN100=



000
FTUS43 KDMX 272220 AAC
TAFOTM
TAF AMD
KOTM 272220Z 2722/2818 VRB10KT 4SM TS BR BKN110CB
     FM272300 14010KT P6SM SCT030 BKN050
     FM281600 18014KT P6SM SCT050 BKN100=



000
FTUS43 KDMX 272220 AAC
TAFOTM
TAF AMD
KOTM 272220Z 2722/2818 VRB10KT 4SM TS BR BKN110CB
     FM272300 14010KT P6SM SCT030 BKN050
     FM281600 18014KT P6SM SCT050 BKN100=



000
FTUS43 KDMX 272150 AAB
TAFOTM
TAF AMD
KOTM 272150Z 2722/2818 VRB10KT 6SM TS BR SCT025 BKN040CB
     FM272300 14010KT P6SM SCT030 BKN050
     FM281600 18014KT P6SM SCT050 BKN100=



000
FTUS43 KDMX 272150 AAB
TAFOTM
TAF AMD
KOTM 272150Z 2722/2818 VRB10KT 6SM TS BR SCT025 BKN040CB
     FM272300 14010KT P6SM SCT030 BKN050
     FM281600 18014KT P6SM SCT050 BKN100=



000
FTUS43 KDMX 272106 AAC
TAFDSM
TAF AMD
KDSM 272106Z 2721/2818 17012KT 3SM TSRA BR SCT025 BKN050CB
     FM272200 11008KT P6SM BKN040
     FM280600 15010KT P6SM SCT050 BKN100=



000
FTUS43 KDMX 272106 AAC
TAFDSM
TAF AMD
KDSM 272106Z 2721/2818 17012KT 3SM TSRA BR SCT025 BKN050CB
     FM272200 11008KT P6SM BKN040
     FM280600 15010KT P6SM SCT050 BKN100=



000
FTUS43 KDMX 272038 AAA
TAFOTM
TAF AMD
KOTM 272038Z 2721/2818 VRB15G30KT 2SM TS BR SCT025 BKN040CB
     FM272300 14010KT P6SM SCT030 BKN050
     FM281600 18014KT P6SM SCT050 BKN100=



000
FTUS43 KDMX 272038 AAA
TAFOTM
TAF AMD
KOTM 272038Z 2721/2818 VRB15G30KT 2SM TS BR SCT025 BKN040CB
     FM272300 14010KT P6SM SCT030 BKN050
     FM281600 18014KT P6SM SCT050 BKN100=



000
FTUS43 KDMX 271944 AAB
TAFDSM
TAF AMD
KDSM 271944Z 2720/2818 07012KT 6SM TSRA BR SCT020 BKN050CB
     FM272200 11008KT P6SM BKN040
     FM280600 15011KT P6SM SCT050 BKN100=



000
FTUS43 KDMX 271944 AAB
TAFDSM
TAF AMD
KDSM 271944Z 2720/2818 07012KT 6SM TSRA BR SCT020 BKN050CB
     FM272200 11008KT P6SM BKN040
     FM280600 15011KT P6SM SCT050 BKN100=



000
FTUS43 KDMX 271944 AAB
TAFDSM
TAF AMD
KDSM 271944Z 2720/2818 07012KT 6SM TSRA BR SCT020 BKN050CB
     FM272200 11008KT P6SM BKN040
     FM280600 15011KT P6SM SCT050 BKN100=



000
FTUS43 KDMX 271757 AAA
TAFDSM
TAF AMD
KDSM 271757Z 2718/2818 36012G20KT 6SM TSRA BR SCT020 BKN030CB
      TEMPO 2718/2720 1SM TSRA SCT008 BKN015 OVC030CB
     FM272000 10010KT P6SM BKN035 BKN120
     FM280600 15011KT P6SM SCT050 BKN100=



000
FTUS43 KDMX 271757 AAA
TAFDSM
TAF AMD
KDSM 271757Z 2718/2818 36012G20KT 6SM TSRA BR SCT020 BKN030CB
      TEMPO 2718/2720 1SM TSRA SCT008 BKN015 OVC030CB
     FM272000 10010KT P6SM BKN035 BKN120
     FM280600 15011KT P6SM SCT050 BKN100=



000
FTUS43 KDMX 271757 AAA
TAFDSM
TAF AMD
KDSM 271757Z 2718/2818 36012G20KT 6SM TSRA BR SCT020 BKN030CB
      TEMPO 2718/2720 1SM TSRA SCT008 BKN015 OVC030CB
     FM272000 10010KT P6SM BKN035 BKN120
     FM280600 15011KT P6SM SCT050 BKN100=



000
FTUS43 KDMX 271757 AAA
TAFDSM
TAF AMD
KDSM 271757Z 2718/2818 36012G20KT 6SM TSRA BR SCT020 BKN030CB
      TEMPO 2718/2720 1SM TSRA SCT008 BKN015 OVC030CB
     FM272000 10010KT P6SM BKN035 BKN120
     FM280600 15011KT P6SM SCT050 BKN100=



000
FTUS43 KDMX 271734
TAFDSM
TAF
KDSM 271734Z 2718/2818 06012G20KT P6SM VCTS SCT020 BKN100CB
      TEMPO 2718/2720 4SM TSRA SCT008 BKN018 OVC030CB
     FM272000 10010KT P6SM BKN035 BKN120
     FM280600 15011KT P6SM SCT050 BKN100=



000
FTUS43 KDMX 271734
TAFOTM
TAF
KOTM 271734Z 2718/2818 12009KT P6SM SCT025 BKN035
     FM272000 03011KT P6SM VCSH SCT020 BKN050
     FM272300 14010KT P6SM SCT030 BKN050
     FM281600 18014KT P6SM SCT050 BKN100=



000
FTUS43 KDMX 271734
TAFALO
TAF
KALO 271734Z 2718/2818 14009KT P6SM SCT009 BKN035
     FM281500 16012KT P6SM SCT010 BKN050=



000
FTUS43 KDMX 271734
TAFFOD
TAF
KFOD 271734Z 2718/2818 10009KT 6SM BR VCTS BKN035CB
     FM271900 10009KT P6SM FEW015 BKN035
     FM280900 16015KT P6SM BKN090
     FM281400 16014KT P6SM VCSH SCT030 BKN050=



000
FTUS43 KDMX 271734
TAFDSM
TAF
KDSM 271734Z 2718/2818 06012G20KT P6SM VCTS SCT020 BKN100CB
      TEMPO 2718/2720 4SM TSRA SCT008 BKN018 OVC030CB
     FM272000 10010KT P6SM BKN035 BKN120
     FM280600 15011KT P6SM SCT050 BKN100=



000
FTUS43 KDMX 271734
TAFFOD
TAF
KFOD 271734Z 2718/2818 10009KT 6SM BR VCTS BKN035CB
     FM271900 10009KT P6SM FEW015 BKN035
     FM280900 16015KT P6SM BKN090
     FM281400 16014KT P6SM VCSH SCT030 BKN050=



000
FTUS43 KDMX 271734
TAFOTM
TAF
KOTM 271734Z 2718/2818 12009KT P6SM SCT025 BKN035
     FM272000 03011KT P6SM VCSH SCT020 BKN050
     FM272300 14010KT P6SM SCT030 BKN050
     FM281600 18014KT P6SM SCT050 BKN100=



000
FTUS43 KDMX 271734
TAFALO
TAF
KALO 271734Z 2718/2818 14009KT P6SM SCT009 BKN035
     FM281500 16012KT P6SM SCT010 BKN050=



000
FTUS43 KDMX 271734
TAFMCW
TAF
KMCW 271734Z 2718/2818 14010KT P6SM SCT010 BKN022
     FM272000 14010KT P6SM SCT015 BKN035
     FM281100 16014G18KT 6SM BR VCSH SCT015 BKN090=



000
FTUS43 KDMX 271734
TAFOTM
TAF
KOTM 271734Z 2718/2818 12009KT P6SM SCT025 BKN035
     FM272000 03011KT P6SM VCSH SCT020 BKN050
     FM272300 14010KT P6SM SCT030 BKN050
     FM281600 18014KT P6SM SCT050 BKN100=



000
FTUS43 KDMX 271734
TAFMCW
TAF
KMCW 271734Z 2718/2818 14010KT P6SM SCT010 BKN022
     FM272000 14010KT P6SM SCT015 BKN035
     FM281100 16014G18KT 6SM BR VCSH SCT015 BKN090=



000
FTUS43 KDMX 271734
TAFDSM
TAF
KDSM 271734Z 2718/2818 06012G20KT P6SM VCTS SCT020 BKN100CB
      TEMPO 2718/2720 4SM TSRA SCT008 BKN018 OVC030CB
     FM272000 10010KT P6SM BKN035 BKN120
     FM280600 15011KT P6SM SCT050 BKN100=



000
FTUS43 KDMX 271734
TAFFOD
TAF
KFOD 271734Z 2718/2818 10009KT 6SM BR VCTS BKN035CB
     FM271900 10009KT P6SM FEW015 BKN035
     FM280900 16015KT P6SM BKN090
     FM281400 16014KT P6SM VCSH SCT030 BKN050=



000
FTUS43 KDMX 271734
TAFALO
TAF
KALO 271734Z 2718/2818 14009KT P6SM SCT009 BKN035
     FM281500 16012KT P6SM SCT010 BKN050=



000
FTUS43 KDMX 271734
TAFMCW
TAF
KMCW 271734Z 2718/2818 14010KT P6SM SCT010 BKN022
     FM272000 14010KT P6SM SCT015 BKN035
     FM281100 16014G18KT 6SM BR VCSH SCT015 BKN090=



000
FTUS43 KDMX 271632 AAB
TAFDSM
TAF AMD
KDSM 271632Z 2717/2812 14009KT P6SM BKN019
     FM271715 14012KT 3SM BR VCTS BKN010CB
     FM271900 15009KT P6SM BKN035 BKN120=



000
FTUS43 KDMX 271632 AAB
TAFDSM
TAF AMD
KDSM 271632Z 2717/2812 14009KT P6SM BKN019
     FM271715 14012KT 3SM BR VCTS BKN010CB
     FM271900 15009KT P6SM BKN035 BKN120=



000
FTUS43 KDMX 271632 AAB
TAFDSM
TAF AMD
KDSM 271632Z 2717/2812 14009KT P6SM BKN019
     FM271715 14012KT 3SM BR VCTS BKN010CB
     FM271900 15009KT P6SM BKN035 BKN120=



000
FTUS43 KDMX 271613 AAA
TAFDSM
TAF AMD
KDSM 271613Z 2716/2812 14009KT P6SM BKN019
     FM271700 14012KT 3SM BR VCTS BKN010CB
      TEMPO 2718/2719 33020G35KT
     FM271900 15009KT P6SM BKN035 BKN120=



000
FTUS43 KDMX 271613 AAA
TAFDSM
TAF AMD
KDSM 271613Z 2716/2812 14009KT P6SM BKN019
     FM271700 14012KT 3SM BR VCTS BKN010CB
      TEMPO 2718/2719 33020G35KT
     FM271900 15009KT P6SM BKN035 BKN120=



000
FTUS43 KDMX 271613 AAA
TAFDSM
TAF AMD
KDSM 271613Z 2716/2812 14009KT P6SM BKN019
     FM271700 14012KT 3SM BR VCTS BKN010CB
      TEMPO 2718/2719 33020G35KT
     FM271900 15009KT P6SM BKN035 BKN120=



000
FTUS43 KDMX 271613 AAA
TAFDSM
TAF AMD
KDSM 271613Z 2716/2812 14009KT P6SM BKN019
     FM271700 14012KT 3SM BR VCTS BKN010CB
      TEMPO 2718/2719 33020G35KT
     FM271900 15009KT P6SM BKN035 BKN120=



000
FTUS43 KDMX 271603 AAC
TAFMCW
TAF AMD
KMCW 271603Z 2716/2812 15010KT P6SM OVC007
     FM271700 14010KT P6SM BKN012
     FM272000 14010KT P6SM BKN035
     FM281100 16014G20KT P6SM BKN090=



000
FTUS43 KDMX 271603 AAC
TAFMCW
TAF AMD
KMCW 271603Z 2716/2812 15010KT P6SM OVC007
     FM271700 14010KT P6SM BKN012
     FM272000 14010KT P6SM BKN035
     FM281100 16014G20KT P6SM BKN090=



000
FTUS43 KDMX 271601 AAD
TAFFOD
TAF AMD
KFOD 271601Z 2716/2812 10009KT 6SM BR VCTS BKN035CB
     FM271900 10009KT P6SM FEW015 BKN035
     FM280900 16013G20KT P6SM BKN090=



000
FTUS43 KDMX 271414 AAC
TAFFOD
TAF AMD
KFOD 271414Z 2714/2812 12009KT 2SM BR OVC004
     FM271430 12009KT 3SM BR VCTS BKN008CB
     FM271730 14010KT P6SM FEW015 BKN035
     FM280900 16013G20KT P6SM BKN090=



    US Dept of Commerce
    National Oceanic and Atmospheric Administration
    National Weather Service
    1325 East West Highway
    Silver Spring, MD 20910
    Page Author: NWS Internet Services Team
Disclaimer
Information Quality
Credits
Glossary
Privacy Policy
Freedom of Information Act (FOIA)
About Us
Career Opportunities